createdAt,value
2022-12-23T00:02:38.291Z,51.37
2022-12-23T00:05:41.428Z,53.67
2022-12-23T00:08:44.490Z,48.85
2022-12-23T00:12:05.484Z,51.22
2022-12-23T00:15:08.909Z,54.28
2022-12-23T00:18:11.493Z,47.80
2022-12-23T00:21:16.764Z,50.30
2022-12-23T00:24:19.423Z,50.05
2022-12-23T00:27:21.728Z,48.80
2022-12-23T00:30:24.524Z,48.03
2022-12-23T00:33:29.624Z,48.05
2022-12-23T00:36:32.438Z,50.55
2022-12-23T00:39:55.174Z,51.78
2022-12-23T00:42:59.719Z,55.07
2022-12-23T00:46:02.019Z,59.50
2022-12-23T00:49:23.770Z,48.13
2022-12-23T00:52:26.074Z,49.00
2022-12-23T00:55:28.671Z,51.92
2022-12-23T00:58:32.004Z,45.80
2022-12-23T01:01:53.821Z,49.47
2022-12-23T01:05:14.967Z,46.35
2022-12-23T01:08:17.590Z,51.95
2022-12-23T01:11:19.897Z,50.92
2022-12-23T01:14:22.857Z,53.20
2022-12-23T01:17:25.287Z,50.70
2022-12-23T01:20:27.971Z,47.92
2022-12-23T01:23:30.330Z,48.90
2022-12-23T01:26:33.015Z,52.35
2022-12-23T01:29:35.335Z,52.40
2022-12-23T01:32:38.309Z,55.70
2022-12-23T01:35:40.630Z,50.70
2022-12-23T01:38:43.872Z,56.55
2022-12-23T01:42:05.632Z,54.75
2022-12-23T01:45:21.128Z,51.42
2022-12-23T01:48:27.650Z,56.05
2022-12-23T01:51:30.477Z,53.97
2022-12-23T01:54:33.533Z,51.00
2022-12-23T01:57:39.328Z,57.08
2022-12-23T02:01:01.214Z,55.28
2022-12-23T02:04:16.048Z,57.90
2022-12-23T02:07:37.697Z,57.00
2022-12-23T02:11:15.360Z,57.67
2022-12-23T02:14:51.618Z,55.05
2022-12-23T02:17:56.838Z,59.95
2022-12-23T02:21:24.001Z,57.38
2022-12-23T02:24:35.779Z,60.83
2022-12-23T02:28:08.916Z,63.72
2022-12-23T02:31:39.402Z,64.20
2022-12-23T02:35:11.016Z,64.80
2022-12-23T02:38:23.639Z,74.57
2022-12-23T02:42:11.058Z,74.80
2022-12-23T02:45:19.793Z,71.20
2022-12-23T02:48:32.126Z,72.97
2022-12-23T02:51:40.628Z,66.53
2022-12-23T02:54:51.815Z,77.12
2022-12-23T02:57:55.793Z,68.22
2022-12-23T03:01:00.622Z,80.18
2022-12-23T03:04:03.322Z,79.00
2022-12-23T03:07:08.069Z,87.75
2022-12-23T03:10:20.740Z,80.85
2022-12-23T03:13:41.529Z,87.40
2022-12-23T03:17:32.258Z,79.22
2022-12-23T03:20:42.373Z,90.90
2022-12-23T03:23:55.724Z,95.80
2022-12-23T03:27:08.635Z,88.53
2022-12-23T03:30:15.051Z,87.95
2022-12-23T03:33:24.117Z,95.55
2022-12-23T03:36:32.590Z,103.57
2022-12-23T03:39:47.069Z,91.57
2022-12-23T03:42:56.799Z,86.80
2022-12-23T03:46:13.249Z,89.78
2022-12-23T03:49:23.776Z,101.32
2022-12-23T03:52:41.633Z,115.03
2022-12-23T03:55:51.733Z,96.40
2022-12-23T03:59:17.493Z,108.07
2022-12-23T04:02:46.741Z,109.07
2022-12-23T04:05:58.104Z,103.10
2022-12-23T04:09:01.989Z,105.43
2022-12-23T04:12:04.960Z,95.65
2022-12-23T04:15:12.527Z,98.30
2022-12-23T04:18:16.461Z,114.07
2022-12-23T04:21:18.810Z,103.45
2022-12-23T04:24:21.548Z,107.95
2022-12-23T04:27:23.870Z,110.10
2022-12-23T04:30:31.608Z,105.70
2022-12-23T04:33:36.728Z,107.55
2022-12-23T04:36:39.306Z,107.37
2022-12-23T04:39:41.732Z,107.90
2022-12-23T04:42:44.537Z,129.95
2022-12-23T04:45:51.352Z,100.10
2022-12-23T04:48:53.969Z,115.37
2022-12-23T04:51:56.344Z,98.35
2022-12-23T04:54:59.147Z,105.65
2022-12-23T04:58:01.450Z,101.40
2022-12-23T05:04:12.880Z,111.90
2022-12-23T05:07:15.595Z,101.70
2022-12-23T05:10:18.073Z,89.80
2022-12-23T05:13:20.771Z,88.62
2022-12-23T05:16:23.278Z,87.75
2022-12-23T05:19:25.929Z,87.12
2022-12-23T05:22:28.227Z,78.87
2022-12-23T05:25:33.948Z,76.75
2022-12-23T05:28:36.311Z,68.80
2022-12-23T05:31:38.963Z,77.35
2022-12-23T05:34:41.331Z,72.43
2022-12-23T05:37:43.916Z,72.07
2022-12-23T05:40:46.485Z,84.05
2022-12-23T05:43:49.531Z,74.95
2022-12-23T05:46:51.866Z,73.72
2022-12-23T05:49:54.418Z,88.87
2022-12-23T05:52:57.751Z,95.47
2022-12-23T05:56:04.585Z,77.32
2022-12-23T05:59:06.958Z,76.45
2022-12-23T06:02:09.819Z,82.50
2022-12-23T06:05:13.327Z,92.88
2022-12-23T06:08:15.702Z,77.17
2022-12-23T06:11:18.329Z,73.85
2022-12-23T06:14:26.884Z,57.08
2022-12-23T06:17:31.510Z,61.65
2022-12-23T06:20:33.897Z,56.97
2022-12-23T06:23:36.655Z,57.40
2022-12-23T06:26:39.065Z,57.70
2022-12-23T06:29:42.274Z,58.33
2022-12-23T06:32:44.602Z,61.83
2022-12-23T06:35:47.505Z,58.70
2022-12-23T06:38:49.850Z,59.03
2022-12-23T06:41:52.691Z,63.60
2022-12-23T06:44:55.076Z,68.87
2022-12-23T06:47:57.681Z,51.53
2022-12-23T06:50:59.979Z,59.10
2022-12-23T06:54:02.692Z,57.30
2022-12-23T06:57:05.012Z,57.55
2022-12-23T07:00:09.029Z,46.10
2022-12-23T07:03:11.566Z,51.15
2022-12-23T07:06:14.981Z,48.47
2022-12-23T07:09:17.443Z,55.90
2022-12-23T07:12:20.147Z,53.47
2022-12-23T07:15:22.441Z,40.42
2022-12-23T07:18:25.556Z,49.75
2022-12-23T07:21:29.807Z,48.50
2022-12-23T07:24:32.770Z,53.25
2022-12-23T07:27:35.030Z,56.47
2022-12-23T07:30:37.653Z,53.30
2022-12-23T07:33:40.029Z,45.63
2022-12-23T07:36:42.653Z,48.63
2022-12-23T07:39:44.989Z,48.58
2022-12-23T07:42:54.419Z,48.20
2022-12-23T07:46:00.340Z,43.87
2022-12-23T07:49:03.753Z,50.35
2022-12-23T07:52:06.158Z,50.00
2022-12-23T07:55:09.143Z,48.95
2022-12-23T07:58:11.451Z,56.37
2022-12-23T08:01:14.156Z,58.72
2022-12-23T08:04:16.992Z,49.58
2022-12-23T08:07:19.474Z,48.50
2022-12-23T08:10:22.595Z,44.92
2022-12-23T08:13:25.323Z,48.40
2022-12-23T08:16:28.032Z,43.92
2022-12-23T08:19:30.363Z,46.13
2022-12-23T08:22:33.064Z,43.35
2022-12-23T08:25:35.440Z,51.75
2022-12-23T08:28:39.830Z,42.58
2022-12-23T08:31:42.217Z,45.75
2022-12-23T08:34:44.811Z,48.97
2022-12-23T08:37:47.141Z,47.35
2022-12-23T08:40:49.773Z,54.70
2022-12-23T08:43:53.024Z,49.03
2022-12-23T08:46:56.158Z,50.83
2022-12-23T08:49:59.260Z,47.53
2022-12-23T08:53:01.898Z,50.95
2022-12-23T08:56:06.988Z,51.72
2022-12-23T08:59:18.791Z,50.00
2022-12-23T09:02:23.328Z,53.43
2022-12-23T09:05:26.104Z,54.95
2022-12-23T09:08:28.433Z,50.30
2022-12-23T09:11:31.805Z,53.90
2022-12-23T09:14:34.168Z,52.57
2022-12-23T09:17:36.820Z,50.55
2022-12-23T09:20:39.935Z,54.30
2022-12-23T09:23:43.138Z,59.35
2022-12-23T09:26:46.085Z,53.50
2022-12-23T09:29:48.746Z,54.95
2022-12-23T09:32:51.436Z,58.35
2022-12-23T09:35:59.917Z,57.20
2022-12-23T09:39:02.469Z,47.80
2022-12-23T09:42:43.693Z,53.95
2022-12-23T09:46:04.760Z,51.42
2022-12-23T09:49:16.687Z,46.95
2022-12-23T09:52:40.624Z,44.83
2022-12-23T09:55:58.252Z,48.10
2022-12-23T09:59:08.489Z,51.37
2022-12-23T10:02:32.639Z,42.38
2022-12-23T10:06:14.350Z,48.08
2022-12-23T10:09:18.728Z,44.55
2022-12-23T10:12:39.659Z,41.90
2022-12-23T10:15:47.942Z,41.13
2022-12-23T10:19:01.083Z,46.55
2022-12-23T10:22:11.966Z,41.95
2022-12-23T10:25:37.482Z,46.40
2022-12-23T10:28:39.967Z,46.13
2022-12-23T10:32:17.598Z,45.08
2022-12-23T10:35:37.269Z,44.83
2022-12-23T10:39:05.126Z,41.83
2022-12-23T10:42:28.238Z,47.92
2022-12-23T10:45:54.441Z,43.85
2022-12-23T10:49:22.295Z,48.45
2022-12-23T10:52:29.928Z,45.60
2022-12-23T10:55:35.819Z,47.95
2022-12-23T10:58:44.296Z,49.28
2022-12-23T11:01:53.084Z,50.22
2022-12-23T11:04:56.417Z,48.87
2022-12-23T11:07:59.134Z,56.03
2022-12-23T11:11:02.157Z,54.17
2022-12-23T11:14:04.773Z,53.28
2022-12-23T11:17:29.157Z,51.28
2022-12-23T11:20:33.000Z,50.67
2022-12-23T11:26:39.577Z,48.27
2022-12-23T11:29:49.675Z,48.33
2022-12-23T11:32:52.499Z,52.13
2022-12-23T11:36:29.032Z,50.50
2022-12-23T11:39:34.644Z,56.85
2022-12-23T11:42:41.646Z,53.78
2022-12-23T11:45:44.054Z,59.67
2022-12-23T11:48:54.345Z,61.20
2022-12-23T11:52:06.388Z,59.75
2022-12-23T11:55:24.997Z,56.88
2022-12-23T11:58:30.001Z,61.63
2022-12-23T12:01:33.173Z,53.15
2022-12-23T12:04:36.503Z,56.30
2022-12-23T12:07:43.259Z,61.00
2022-12-23T12:10:46.183Z,64.45
2022-12-23T12:13:50.589Z,59.92
2022-12-23T12:17:14.267Z,66.03
2022-12-23T12:20:29.225Z,63.38
2022-12-23T12:23:40.427Z,57.60
2022-12-23T12:26:44.580Z,53.30
2022-12-23T12:30:08.189Z,58.85
2022-12-23T12:33:28.106Z,65.50
2022-12-23T12:36:36.646Z,57.88
2022-12-23T12:40:01.509Z,65.87
2022-12-23T12:43:22.578Z,61.47
2022-12-23T12:46:25.009Z,59.28
2022-12-23T12:49:37.253Z,62.95
2022-12-23T12:52:42.252Z,63.60
2022-12-23T12:56:04.060Z,55.47
2022-12-23T12:59:06.413Z,61.35
2022-12-23T13:02:46.631Z,58.42
2022-12-23T13:05:54.886Z,64.72
2022-12-23T13:09:23.697Z,66.60
2022-12-23T13:13:13.909Z,58.95
2022-12-23T13:16:35.077Z,60.92
2022-12-23T13:20:32.767Z,64.37
2022-12-23T13:23:46.117Z,56.15
2022-12-23T13:27:39.530Z,63.55
2022-12-23T13:31:08.532Z,58.55
2022-12-23T13:34:36.065Z,64.60
2022-12-23T13:37:49.168Z,66.87
2022-12-23T13:41:12.859Z,62.30
2022-12-23T13:44:18.905Z,68.95
2022-12-23T13:47:49.114Z,70.50
2022-12-23T13:51:00.975Z,59.15
2022-12-23T13:54:15.675Z,67.55
2022-12-23T13:57:58.322Z,60.65
2022-12-23T14:01:09.981Z,59.00
2022-12-23T14:04:57.193Z,63.17
2022-12-23T14:08:20.800Z,67.00
2022-12-23T14:11:28.491Z,65.80
2022-12-23T14:15:25.043Z,65.10
2022-12-23T14:18:48.354Z,58.92
2022-12-23T14:22:21.770Z,59.80
2022-12-23T14:25:41.243Z,56.20
2022-12-23T14:28:56.453Z,56.47
2022-12-23T14:31:59.414Z,55.45
2022-12-23T14:35:20.337Z,58.60
2022-12-23T14:38:29.221Z,60.17
2022-12-23T14:41:38.961Z,55.83
2022-12-23T14:44:43.715Z,62.53
2022-12-23T14:47:46.579Z,59.33
2022-12-23T14:51:00.125Z,69.00
2022-12-23T14:54:02.361Z,68.50
2022-12-23T14:57:18.047Z,61.08
2022-12-23T15:00:20.405Z,57.42
2022-12-23T15:03:23.670Z,62.30
2022-12-23T15:06:35.311Z,65.03
2022-12-23T15:09:48.513Z,57.53
2022-12-23T15:12:58.032Z,58.85
2022-12-23T15:16:01.949Z,66.00
2022-12-23T15:19:24.380Z,64.65
2022-12-23T15:22:32.620Z,55.25
2022-12-23T15:25:40.725Z,63.75
2022-12-23T15:28:44.160Z,61.42
2022-12-23T15:31:50.619Z,53.92
2022-12-23T15:35:00.030Z,67.57
2022-12-23T15:38:03.281Z,62.28
2022-12-23T15:41:14.928Z,56.37
2022-12-23T15:44:25.897Z,61.37
2022-12-23T15:47:31.277Z,59.42
2022-12-23T15:50:41.768Z,63.97
2022-12-23T15:53:47.253Z,62.35
2022-12-23T15:56:53.467Z,60.08
2022-12-23T15:59:58.558Z,59.47
2022-12-23T16:03:03.330Z,55.12
2022-12-23T16:06:17.058Z,61.88
2022-12-23T16:09:19.337Z,56.03
2022-12-23T16:12:25.919Z,63.78
2022-12-23T16:15:31.100Z,69.25
2022-12-23T16:18:46.891Z,66.15
2022-12-23T16:21:49.960Z,62.05
2022-12-23T16:25:24.831Z,59.42
2022-12-23T16:28:38.568Z,62.38
2022-12-23T16:31:48.236Z,59.70
2022-12-23T16:34:55.178Z,64.60
2022-12-23T16:38:11.283Z,60.00
2022-12-23T16:41:14.394Z,65.00
2022-12-23T16:44:17.238Z,65.10
2022-12-23T16:47:20.134Z,62.42
2022-12-23T16:50:23.198Z,78.10
2022-12-23T16:53:25.740Z,73.50
2022-12-23T16:56:32.045Z,70.87
2022-12-23T16:59:34.386Z,76.57
2022-12-23T17:02:37.147Z,64.03
2022-12-23T17:05:39.574Z,66.47
2022-12-23T17:08:42.981Z,66.85
2022-12-23T17:11:53.202Z,64.37
2022-12-23T17:14:55.799Z,63.97
2022-12-23T17:17:58.374Z,68.93
2022-12-23T17:21:04.186Z,71.47
2022-12-23T17:24:22.467Z,63.95
2022-12-23T17:27:25.356Z,62.50
2022-12-23T17:30:33.526Z,63.38
2022-12-23T17:33:36.406Z,64.40
2022-12-23T17:36:41.912Z,67.10
2022-12-23T17:39:47.586Z,61.55
2022-12-23T17:42:53.559Z,65.87
2022-12-23T17:45:56.308Z,65.12
2022-12-23T17:48:59.308Z,66.30
2022-12-23T17:52:02.175Z,62.17
2022-12-23T17:55:09.881Z,61.15
2022-12-23T17:58:13.988Z,66.15
2022-12-23T18:01:26.403Z,63.30
2022-12-23T18:04:29.063Z,65.10
2022-12-23T18:07:31.363Z,65.65
2022-12-23T18:10:39.137Z,60.30
2022-12-23T18:13:41.494Z,64.80
2022-12-23T18:16:44.232Z,70.78
2022-12-23T18:19:46.641Z,62.17
2022-12-23T18:22:53.120Z,66.97
2022-12-23T18:25:56.740Z,73.95
2022-12-23T18:28:59.336Z,67.80
2022-12-23T18:32:01.786Z,66.47
2022-12-23T18:35:15.927Z,65.20
2022-12-23T18:38:18.475Z,62.00
2022-12-23T18:41:21.856Z,67.57
2022-12-23T18:44:24.463Z,60.27
2022-12-23T18:47:27.083Z,65.45
2022-12-23T18:50:30.871Z,65.40
2022-12-23T18:56:35.717Z,59.33
2022-12-23T18:59:39.750Z,64.55
2022-12-23T19:02:43.205Z,62.08
2022-12-23T19:05:47.109Z,64.87
2022-12-23T19:08:49.438Z,72.47
2022-12-23T19:11:53.922Z,69.05
2022-12-23T19:14:56.356Z,62.20
2022-12-23T19:17:59.033Z,58.90
2022-12-23T19:21:04.624Z,67.05
2022-12-23T19:24:07.289Z,64.37
2022-12-23T19:27:09.788Z,67.32
2022-12-23T19:30:15.909Z,70.93
2022-12-23T19:33:18.307Z,72.95
2022-12-23T19:36:25.488Z,59.05
2022-12-23T19:39:31.315Z,65.55
2022-12-23T19:42:36.658Z,78.10
2022-12-23T19:45:39.095Z,81.22
2022-12-23T19:48:42.122Z,71.75
2022-12-23T19:51:44.469Z,77.47
2022-12-23T19:54:47.351Z,67.12
2022-12-23T19:57:49.653Z,69.25
2022-12-23T20:00:52.353Z,67.65
2022-12-23T20:03:56.339Z,80.50
2022-12-23T20:06:58.681Z,72.33
2022-12-23T20:10:01.291Z,66.32
2022-12-23T20:13:03.580Z,69.22
2022-12-23T20:16:07.502Z,65.70
2022-12-23T20:19:10.473Z,69.75
2022-12-23T20:22:13.227Z,68.80
2022-12-23T20:25:15.677Z,61.85
2022-12-23T20:28:18.559Z,63.42
2022-12-23T20:31:24.036Z,66.65
2022-12-23T20:34:26.684Z,60.95
2022-12-23T20:37:29.000Z,64.15
2022-12-23T20:40:31.717Z,63.97
2022-12-23T20:43:34.811Z,66.25
2022-12-23T20:46:37.506Z,63.00
2022-12-23T20:49:39.962Z,58.97
2022-12-23T20:52:42.543Z,55.95
2022-12-23T20:55:45.071Z,52.40
2022-12-23T20:59:01.565Z,55.47
2022-12-23T21:02:04.035Z,63.13
2022-12-23T21:05:07.196Z,51.92
2022-12-23T21:08:09.612Z,53.95
2022-12-23T21:11:12.757Z,52.30
2022-12-23T21:14:16.031Z,60.63
2022-12-23T21:17:18.730Z,51.63
2022-12-23T21:20:21.086Z,55.35
2022-12-23T21:23:23.710Z,58.60
2022-12-23T21:26:28.349Z,71.05
2022-12-23T21:29:30.998Z,54.05
2022-12-23T21:32:33.388Z,57.17
2022-12-23T21:35:36.066Z,66.45
2022-12-23T21:38:41.917Z,52.45
2022-12-23T21:41:45.869Z,59.42
2022-12-23T21:44:48.311Z,57.58
2022-12-23T21:47:50.992Z,54.15
2022-12-23T21:50:53.789Z,52.10
2022-12-23T21:53:58.400Z,51.40
2022-12-23T21:57:00.762Z,52.85
2022-12-23T22:00:04.025Z,53.75
2022-12-23T22:03:06.754Z,49.92
2022-12-23T22:06:30.084Z,54.75
2022-12-23T22:09:32.744Z,50.85
2022-12-23T22:12:35.386Z,56.28
2022-12-23T22:15:43.805Z,52.90
2022-12-23T22:18:47.480Z,50.15
2022-12-23T22:21:49.805Z,59.20
2022-12-23T22:24:53.454Z,56.63
2022-12-23T22:27:55.777Z,50.25
2022-12-23T22:31:06.851Z,53.55
2022-12-23T22:34:13.067Z,48.78
2022-12-23T22:37:16.428Z,46.78
2022-12-23T22:40:18.796Z,42.40
2022-12-23T22:43:24.344Z,42.35
2022-12-23T22:46:27.719Z,43.75
2022-12-23T22:49:30.540Z,38.72
2022-12-23T22:52:32.883Z,44.40
2022-12-23T22:55:35.505Z,39.42
2022-12-23T22:58:37.881Z,38.97
2022-12-23T23:01:40.521Z,35.70
2022-12-23T23:04:43.004Z,36.38
2022-12-23T23:07:45.703Z,34.42
2022-12-23T23:10:48.055Z,33.22
2022-12-23T23:13:50.894Z,33.05
2022-12-23T23:16:53.369Z,34.00
2022-12-23T23:19:56.048Z,34.92
2022-12-23T23:22:58.343Z,33.78
2022-12-23T23:26:01.136Z,41.10
2022-12-23T23:29:03.512Z,39.15
2022-12-23T23:32:07.597Z,42.90
2022-12-23T23:35:11.075Z,41.85
2022-12-23T23:41:22.488Z,44.25
2022-12-23T23:44:26.077Z,45.75
2022-12-23T23:47:28.391Z,45.58
2022-12-23T23:50:30.959Z,44.38
2022-12-23T23:53:33.426Z,43.63
2022-12-23T23:56:38.559Z,39.13
2022-12-23T23:59:41.732Z,42.13
